createdAt,value
2023-05-18T03:59:17.852Z,1022.92
2023-05-18T04:00:17.740Z,1022.88
2023-05-18T04:01:17.725Z,1022.92
2023-05-18T04:02:17.726Z,1022.94
2023-05-18T04:03:17.837Z,1022.91
2023-05-18T04:04:17.908Z,1022.92
2023-05-18T04:05:17.685Z,1022.92
2023-05-18T04:06:17.677Z,1022.91
2023-05-18T04:07:17.662Z,1022.90
2023-05-18T04:08:17.671Z,1022.89
2023-05-18T04:09:17.707Z,1022.90
2023-05-18T04:10:17.671Z,1022.90
2023-05-18T04:11:17.642Z,1022.90
2023-05-18T04:12:17.637Z,1022.90
2023-05-18T04:13:17.639Z,1022.91
2023-05-18T04:14:17.643Z,1022.91
2023-05-18T04:15:17.663Z,1022.89
2023-05-18T04:16:17.688Z,1022.95
2023-05-18T04:17:17.605Z,1022.99
2023-05-18T04:18:17.631Z,1022.98
2023-05-18T04:19:17.663Z,1023.00
2023-05-18T04:20:17.601Z,1022.99
2023-05-18T04:21:17.593Z,1023.01
2023-05-18T04:22:17.595Z,1023.01
2023-05-18T04:23:17.625Z,1023.00
2023-05-18T04:24:17.622Z,1023.03
2023-05-18T04:25:17.593Z,1023.04
2023-05-18T04:26:17.581Z,1023.06
2023-05-18T04:27:17.580Z,1023.09
2023-05-18T04:28:17.634Z,1023.07
2023-05-18T04:29:17.554Z,1023.07
2023-05-18T04:30:17.574Z,1023.09
2023-05-18T04:31:17.577Z,1023.08
2023-05-18T04:32:17.564Z,1023.09
2023-05-18T04:33:17.557Z,1023.10
2023-05-18T04:34:17.581Z,1023.09
2023-05-18T04:35:17.571Z,1023.10
2023-05-18T04:36:19.540Z,1023.09
2023-05-18T04:37:17.565Z,1023.11
2023-05-18T04:38:17.549Z,1023.12
2023-05-18T04:39:17.542Z,1023.12
2023-05-18T04:40:17.692Z,1023.11
2023-05-18T04:41:17.515Z,1023.10
2023-05-18T04:42:17.523Z,1023.14
2023-05-18T04:43:17.554Z,1023.15
2023-05-18T04:44:17.510Z,1023.17
2023-05-18T04:45:17.533Z,1023.13
2023-05-18T04:46:17.542Z,1023.15
2023-05-18T04:47:17.509Z,1023.16
2023-05-18T04:48:17.522Z,1023.16
2023-05-18T04:49:17.490Z,1023.19
2023-05-18T04:50:17.488Z,1023.20
2023-05-18T04:51:17.496Z,1023.19
2023-05-18T04:52:17.484Z,1023.21
2023-05-18T04:53:17.499Z,1023.22
2023-05-18T04:54:17.485Z,1023.21
2023-05-18T04:55:17.505Z,1023.23
2023-05-18T04:56:17.473Z,1023.25
2023-05-18T04:57:17.462Z,1023.21
2023-05-18T04:58:17.463Z,1023.25
2023-05-18T04:59:17.472Z,1023.22
2023-05-18T05:00:17.454Z,1023.24
2023-05-18T05:01:17.487Z,1023.26
2023-05-18T05:02:17.493Z,1023.25
2023-05-18T05:03:17.519Z,1023.26
2023-05-18T05:04:17.447Z,1023.28
2023-05-18T05:05:17.471Z,1023.30
2023-05-18T05:06:17.477Z,1023.31
2023-05-18T05:07:17.422Z,1023.30
2023-05-18T05:08:17.431Z,1023.29
2023-05-18T05:09:17.416Z,1023.25
2023-05-18T05:10:17.424Z,1023.28
2023-05-18T05:11:17.422Z,1023.30
2023-05-18T05:12:17.410Z,1023.27
2023-05-18T05:13:17.414Z,1023.30
2023-05-18T05:14:17.402Z,1023.32
2023-05-18T05:15:17.398Z,1023.32
2023-05-18T05:16:17.426Z,1023.33
2023-05-18T05:17:17.380Z,1023.31
2023-05-18T05:18:17.379Z,1023.29
2023-05-18T05:19:17.444Z,1023.29
2023-05-18T05:20:17.413Z,1023.32
2023-05-18T05:21:17.408Z,1023.30
2023-05-18T05:22:17.380Z,1023.30
2023-05-18T05:23:17.429Z,1023.27
2023-05-18T05:24:17.375Z,1023.30
2023-05-18T05:25:17.392Z,1023.28
2023-05-18T05:26:17.397Z,1023.30
2023-05-18T05:27:17.368Z,1023.33
2023-05-18T05:28:17.385Z,1023.31
2023-05-18T05:29:17.357Z,1023.35
2023-05-18T05:30:17.357Z,1023.33
2023-05-18T05:31:17.458Z,1023.33
2023-05-18T05:32:17.353Z,1023.35
2023-05-18T05:33:17.331Z,1023.37
2023-05-18T05:34:17.340Z,1023.35
2023-05-18T05:35:17.375Z,1023.34
2023-05-18T05:36:17.357Z,1023.35
2023-05-18T05:37:17.362Z,1023.37
2023-05-18T05:38:17.347Z,1023.37
2023-05-18T05:39:17.341Z,1023.36
2023-05-18T05:40:17.326Z,1023.33
2023-05-18T05:41:17.332Z,1023.34
2023-05-18T05:42:17.323Z,1023.37
2023-05-18T05:43:17.320Z,1023.38
2023-05-18T05:44:17.309Z,1023.37
2023-05-18T05:45:17.305Z,1023.38
2023-05-18T05:46:17.391Z,1023.39
2023-05-18T05:47:17.319Z,1023.41
2023-05-18T05:48:17.343Z,1023.39
2023-05-18T05:49:17.317Z,1023.43
2023-05-18T05:50:17.299Z,1023.41
2023-05-18T05:51:17.395Z,1023.44
2023-05-18T05:52:17.298Z,1023.38
2023-05-18T05:53:17.280Z,1023.46
2023-05-18T05:54:17.278Z,1023.45
2023-05-18T05:55:17.288Z,1023.48
2023-05-18T05:56:17.276Z,1023.51
2023-05-18T05:57:17.284Z,1023.49
2023-05-18T05:58:17.288Z,1023.45
2023-05-18T05:59:17.269Z,1023.52
2023-05-18T06:00:17.293Z,1023.50
2023-05-18T06:01:17.267Z,1023.48
2023-05-18T06:02:17.327Z,1023.45
2023-05-18T06:03:17.332Z,1023.45
2023-05-18T06:04:17.333Z,1023.47
2023-05-18T06:05:17.309Z,1023.46
2023-05-18T06:06:17.261Z,1023.48
2023-05-18T06:07:17.264Z,1023.46
2023-05-18T06:08:17.278Z,1023.51
2023-05-18T06:09:17.264Z,1023.48
2023-05-18T06:10:17.287Z,1023.48
2023-05-18T06:11:17.256Z,1023.46
2023-05-18T06:12:17.236Z,1023.45
2023-05-18T06:13:17.251Z,1023.46
2023-05-18T06:14:17.232Z,1023.43
2023-05-18T06:15:17.260Z,1023.43
2023-05-18T06:16:17.302Z,1023.44
2023-05-18T06:17:17.236Z,1023.41
2023-05-18T06:18:17.319Z,1023.50
2023-05-18T06:19:17.293Z,1023.46
2023-05-18T06:20:17.238Z,1023.50
2023-05-18T06:21:17.238Z,1023.53
2023-05-18T06:22:17.224Z,1023.57
2023-05-18T06:23:17.254Z,1023.56
2023-05-18T06:24:17.294Z,1023.60
2023-05-18T06:25:17.238Z,1023.58
2023-05-18T06:26:17.248Z,1023.57
2023-05-18T06:27:17.208Z,1023.56
2023-05-18T06:28:17.212Z,1023.58
2023-05-18T06:29:17.204Z,1023.58
2023-05-18T06:30:17.203Z,1023.57
2023-05-18T06:31:17.215Z,1023.60
2023-05-18T06:32:17.389Z,1023.61
2023-05-18T06:33:17.234Z,1023.61
2023-05-18T06:34:17.208Z,1023.61
2023-05-18T06:35:17.214Z,1023.59
2023-05-18T06:36:17.209Z,1023.59
2023-05-18T06:37:17.196Z,1023.59
2023-05-18T06:38:17.192Z,1023.59
2023-05-18T06:39:17.210Z,1023.58
2023-05-18T06:40:17.195Z,1023.58
2023-05-18T06:41:17.204Z,1023.60
2023-05-18T06:42:17.185Z,1023.58
2023-05-18T06:43:17.249Z,1023.55
2023-05-18T06:44:17.212Z,1023.60
2023-05-18T06:45:17.182Z,1023.58
2023-05-18T06:46:17.238Z,1023.62
2023-05-18T06:47:17.178Z,1023.61
2023-05-18T06:48:17.177Z,1023.60
2023-05-18T06:49:17.176Z,1023.58
2023-05-18T06:50:17.188Z,1023.59
2023-05-18T06:51:17.190Z,1023.62
2023-05-18T06:52:17.182Z,1023.61
2023-05-18T06:53:17.287Z,1023.62
2023-05-18T06:54:17.167Z,1023.61
2023-05-18T06:55:17.185Z,1023.62
2023-05-18T06:56:17.207Z,1023.61
2023-05-18T06:57:17.179Z,1023.63
2023-05-18T06:58:17.187Z,1023.68
2023-05-18T06:59:17.251Z,1023.64
2023-05-18T07:00:17.227Z,1023.67
2023-05-18T07:01:17.179Z,1023.65
2023-05-18T07:02:17.160Z,1023.70
2023-05-18T07:03:17.305Z,1023.70
2023-05-18T07:04:17.198Z,1023.67
2023-05-18T07:05:17.166Z,1023.68
2023-05-18T07:06:17.172Z,1023.66
2023-05-18T07:07:17.160Z,1023.66
2023-05-18T07:08:17.193Z,1023.69
2023-05-18T07:09:17.145Z,1023.73
2023-05-18T07:10:17.161Z,1023.67
2023-05-18T07:11:17.198Z,1023.65
2023-05-18T07:12:17.165Z,1023.63
2023-05-18T07:13:17.155Z,1023.68
2023-05-18T07:14:17.154Z,1023.66
2023-05-18T07:15:17.140Z,1023.65
2023-05-18T07:16:17.211Z,1023.65
2023-05-18T07:17:17.183Z,1023.62
2023-05-18T07:20:49.678Z,1023.66
2023-05-18T07:21:49.689Z,1023.64
2023-05-18T07:22:49.683Z,1023.64
2023-05-18T07:23:49.664Z,1023.62
2023-05-18T07:24:49.694Z,1023.70
2023-05-18T07:25:49.665Z,1023.67
2023-05-18T07:26:49.678Z,1023.64
2023-05-18T07:27:49.686Z,1023.66
2023-05-18T07:28:49.665Z,1023.69
2023-05-18T07:29:49.673Z,1023.68
2023-05-18T07:30:49.655Z,1023.70
2023-05-18T07:31:49.691Z,1023.69
2023-05-18T07:32:49.760Z,1023.68
2023-05-18T07:33:49.674Z,1023.67
2023-05-18T07:34:49.676Z,1023.70
2023-05-18T07:35:49.703Z,1023.68
2023-05-18T07:36:49.665Z,1023.71
2023-05-18T07:37:49.668Z,1023.71
2023-05-18T07:38:49.665Z,1023.67
2023-05-18T07:39:49.681Z,1023.68
2023-05-18T07:40:49.685Z,1023.71
2023-05-18T07:41:49.649Z,1023.72
2023-05-18T07:42:49.665Z,1023.72
2023-05-18T07:43:49.672Z,1023.72
2023-05-18T07:44:49.678Z,1023.70
2023-05-18T07:45:49.648Z,1023.67
2023-05-18T07:46:49.700Z,1023.68
2023-05-18T07:47:49.672Z,1023.72
2023-05-18T07:48:49.649Z,1023.77
2023-05-18T07:49:49.649Z,1023.79
2023-05-18T07:50:49.666Z,1023.74
2023-05-18T07:51:49.638Z,1023.76
2023-05-18T07:52:49.639Z,1023.74
2023-05-18T07:53:49.639Z,1023.82
2023-05-18T07:54:49.644Z,1023.74
2023-05-18T07:55:49.653Z,1023.74
2023-05-18T07:56:49.644Z,1023.81
2023-05-18T07:57:49.635Z,1023.77
2023-05-18T07:58:49.643Z,1023.76
2023-05-18T07:59:49.648Z,1023.78
2023-05-18T08:00:49.654Z,1023.81
2023-05-18T08:01:49.701Z,1023.78
2023-05-18T08:02:49.842Z,1023.79
2023-05-18T08:03:49.775Z,1023.81
2023-05-18T08:04:49.634Z,1023.77
2023-05-18T08:05:49.625Z,1023.79
2023-05-18T08:06:49.630Z,1023.84
2023-05-18T08:07:49.661Z,1023.79
2023-05-18T08:08:49.630Z,1023.81
2023-05-18T08:09:49.621Z,1023.77
2023-05-18T08:10:49.633Z,1023.82
2023-05-18T08:11:49.628Z,1023.80
2023-05-18T08:12:49.621Z,1023.80
2023-05-18T08:13:49.641Z,1023.82
2023-05-18T08:14:49.680Z,1023.84
2023-05-18T08:15:59.335Z,1023.84
2023-05-18T08:16:49.678Z,1023.81
2023-05-18T08:17:49.691Z,1023.84
2023-05-18T08:18:49.698Z,1023.82
2023-05-18T08:19:49.608Z,1023.82
2023-05-18T08:20:49.600Z,1023.83
2023-05-18T08:21:49.618Z,1023.83
2023-05-18T08:22:49.611Z,1023.81
2023-05-18T08:23:49.629Z,1023.78
2023-05-18T08:24:49.596Z,1023.76
2023-05-18T08:25:49.598Z,1023.78
2023-05-18T08:26:49.612Z,1023.80
2023-05-18T08:27:49.623Z,1023.76
2023-05-18T08:28:49.607Z,1023.76
2023-05-18T08:29:49.599Z,1023.72
2023-05-18T08:30:49.631Z,1023.72
2023-05-18T08:31:49.946Z,1023.72
2023-05-18T08:32:49.666Z,1023.76
2023-05-18T08:33:49.591Z,1023.73
2023-05-18T08:34:49.588Z,1023.77
2023-05-18T08:35:49.599Z,1023.76
2023-05-18T08:36:49.584Z,1023.76
2023-05-18T08:37:49.610Z,1023.78
2023-05-18T08:38:49.584Z,1023.78
2023-05-18T08:39:49.594Z,1023.76
2023-05-18T08:40:49.588Z,1023.74
2023-05-18T08:41:49.604Z,1023.77
2023-05-18T08:42:50.760Z,1023.74
2023-05-18T08:43:49.592Z,1023.72
2023-05-18T08:44:49.594Z,1023.72
2023-05-18T08:45:49.576Z,1023.70
2023-05-18T08:46:49.597Z,1023.70
2023-05-18T08:47:49.705Z,1023.71
2023-05-18T08:48:49.622Z,1023.70
2023-05-18T08:49:49.596Z,1023.71
2023-05-18T08:50:49.572Z,1023.70
2023-05-18T08:51:49.569Z,1023.69
2023-05-18T08:52:49.584Z,1023.69
2023-05-18T08:53:49.564Z,1023.69
2023-05-18T08:54:49.589Z,1023.64
2023-05-18T08:55:49.599Z,1023.64
2023-05-18T08:56:49.571Z,1023.65
2023-05-18T08:57:49.571Z,1023.67
2023-05-18T08:58:49.579Z,1023.65
2023-05-18T08:59:49.572Z,1023.69
2023-05-18T09:00:49.593Z,1023.68
2023-05-18T09:01:49.595Z,1023.68
2023-05-18T09:02:49.608Z,1023.72
2023-05-18T09:03:49.569Z,1023.70
2023-05-18T09:04:49.591Z,1023.66
2023-05-18T09:05:49.586Z,1023.64
2023-05-18T09:06:49.597Z,1023.67
2023-05-18T09:07:49.548Z,1023.65
2023-05-18T09:08:49.576Z,1023.66
2023-05-18T09:09:49.580Z,1023.63
2023-05-18T09:10:49.561Z,1023.68
2023-05-18T09:11:49.554Z,1023.59
2023-05-18T09:12:49.549Z,1023.60
2023-05-18T09:13:49.552Z,1023.61
2023-05-18T09:14:49.555Z,1023.59
2023-05-18T09:15:49.569Z,1023.59
2023-05-18T09:16:49.573Z,1023.61
2023-05-18T09:17:49.624Z,1023.54
2023-05-18T09:18:49.621Z,1023.52
2023-05-18T09:19:49.548Z,1023.49
2023-05-18T09:20:49.593Z,1023.47
2023-05-18T09:21:49.551Z,1023.49
2023-05-18T09:22:49.568Z,1023.52
2023-05-18T09:23:49.544Z,1023.50
2023-05-18T09:24:49.554Z,1023.47
2023-05-18T09:25:49.580Z,1023.46
2023-05-18T09:26:49.538Z,1023.44
2023-05-18T09:27:49.528Z,1023.46
2023-05-18T09:28:49.540Z,1023.47
2023-05-18T09:29:49.538Z,1023.41
2023-05-18T09:30:49.569Z,1023.41
2023-05-18T09:31:49.576Z,1023.47
2023-05-18T09:32:49.756Z,1023.42
2023-05-18T09:33:49.576Z,1023.41
2023-05-18T09:34:49.549Z,1023.37
2023-05-18T09:35:49.556Z,1023.40
2023-05-18T09:36:49.550Z,1023.37
2023-05-18T09:37:49.528Z,1023.36
2023-05-18T09:38:49.593Z,1023.36
2023-05-18T09:39:49.547Z,1023.35
2023-05-18T09:40:49.563Z,1023.34
2023-05-18T09:41:49.551Z,1023.33
2023-05-18T09:42:49.531Z,1023.32
2023-05-18T09:43:49.569Z,1023.34
2023-05-18T09:44:49.536Z,1023.34
2023-05-18T09:45:49.544Z,1023.32
2023-05-18T09:46:49.569Z,1023.30
2023-05-18T09:47:49.648Z,1023.29
2023-05-18T09:48:49.560Z,1023.26
2023-05-18T09:49:49.548Z,1023.23
2023-05-18T09:50:49.597Z,1023.22
2023-05-18T09:51:49.538Z,1023.26
2023-05-18T09:52:49.557Z,1023.29
2023-05-18T09:53:49.564Z,1023.27
2023-05-18T09:57:46.947Z,1023.26
2023-05-18T09:58:46.952Z,1023.24
2023-05-18T09:59:46.929Z,1023.25
2023-05-18T10:00:47.037Z,1023.26
2023-05-18T10:01:46.964Z,1023.27
2023-05-18T10:13:40.147Z,1023.21
2023-05-18T10:14:40.007Z,1023.15
2023-05-18T10:15:40.096Z,1023.11
2023-05-18T10:16:40.045Z,1023.07
2023-05-18T10:17:40.145Z,1023.10
2023-05-18T10:18:39.997Z,1023.08
2023-05-18T10:19:39.995Z,1023.11
2023-05-18T10:20:40.002Z,1023.09
2023-05-18T10:21:39.999Z,1023.12
2023-05-18T10:22:40.014Z,1023.09
2023-05-18T10:23:40.108Z,1023.13
2023-05-18T10:24:39.989Z,1023.08
2023-05-18T10:25:40.011Z,1023.13
2023-05-18T10:26:39.988Z,1023.09
2023-05-18T10:27:40.031Z,1023.14
2023-05-18T10:28:39.993Z,1023.13
2023-05-18T10:29:40.031Z,1023.15
2023-05-18T10:30:40.058Z,1023.11
2023-05-18T10:31:40.013Z,1023.17
2023-05-18T10:32:40.048Z,1023.15
2023-05-18T10:33:40.123Z,1023.15
2023-05-18T10:34:40.007Z,1023.15
2023-05-18T10:35:40.017Z,1023.12
2023-05-18T10:36:40.036Z,1023.11
2023-05-18T10:37:40.051Z,1023.12
2023-05-18T10:38:40.022Z,1023.09
2023-05-18T10:39:40.028Z,1023.10
2023-05-18T10:40:40.027Z,1023.09
2023-05-18T10:41:40.014Z,1023.08
2023-05-18T10:42:40.051Z,1023.12
2023-05-18T10:43:40.007Z,1023.11
2023-05-18T10:44:40.050Z,1023.04
2023-05-18T10:45:40.071Z,1023.06
2023-05-18T10:46:40.151Z,1023.05
2023-05-18T10:47:40.345Z,1023.02
2023-05-18T10:48:40.021Z,1023.04
2023-05-18T10:49:40.051Z,1023.06
2023-05-18T10:50:40.049Z,1023.07
2023-05-18T10:51:40.016Z,1023.03
2023-05-18T10:52:40.110Z,1023.05
2023-05-18T10:53:40.041Z,1023.04
2023-05-18T10:54:40.037Z,1023.03
2023-05-18T10:55:40.037Z,1022.98
2023-05-18T10:56:40.063Z,1023.00
2023-05-18T10:57:40.031Z,1023.03
2023-05-18T10:58:40.026Z,1023.02
2023-05-18T10:59:41.938Z,1023.00
2023-05-18T11:00:40.064Z,1022.97
2023-05-18T11:01:40.187Z,1022.98
2023-05-18T11:02:40.229Z,1022.94
2023-05-18T11:03:40.039Z,1022.91
2023-05-18T11:04:40.138Z,1022.96
2023-05-18T11:05:40.051Z,1022.92
2023-05-18T11:06:40.048Z,1022.95
2023-05-18T11:07:40.052Z,1022.91
2023-05-18T11:08:40.066Z,1022.92
2023-05-18T11:09:40.061Z,1022.89
2023-05-18T11:10:40.083Z,1022.90
2023-05-18T11:11:40.072Z,1022.87
2023-05-18T11:12:40.083Z,1022.83
2023-05-18T11:13:40.091Z,1022.85
2023-05-18T11:14:40.088Z,1022.82
2023-05-18T11:15:40.096Z,1022.84
2023-05-18T11:16:40.127Z,1022.83
2023-05-18T11:17:40.158Z,1022.87
2023-05-18T11:18:40.094Z,1022.85
2023-05-18T11:19:40.151Z,1022.86
2023-05-18T11:20:40.103Z,1022.84
2023-05-18T11:21:40.080Z,1022.79
2023-05-18T11:22:40.101Z,1022.80
2023-05-18T11:23:40.120Z,1022.79
2023-05-18T11:24:40.098Z,1022.80
2023-05-18T11:25:40.126Z,1022.79
2023-05-18T11:26:40.127Z,1022.76
2023-05-18T11:27:40.125Z,1022.73
2023-05-18T11:28:40.105Z,1022.75
2023-05-18T11:29:40.115Z,1022.71
2023-05-18T11:30:40.166Z,1022.71
2023-05-18T11:31:40.139Z,1022.73
2023-05-18T11:32:40.240Z,1022.67
2023-05-18T11:33:40.156Z,1022.71
2023-05-18T11:34:40.129Z,1022.70
2023-05-18T11:35:40.166Z,1022.68
2023-05-18T11:36:40.133Z,1022.67
2023-05-18T11:37:40.140Z,1022.69
2023-05-18T11:38:40.187Z,1022.71
2023-05-18T11:39:51.543Z,1022.74
2023-05-18T11:40:40.168Z,1022.71
2023-05-18T11:41:40.178Z,1022.70
2023-05-18T11:42:40.172Z,1022.65
2023-05-18T11:43:40.174Z,1022.65
2023-05-18T11:44:40.197Z,1022.59
2023-05-18T11:45:40.199Z,1022.62
2023-05-18T11:46:40.178Z,1022.63
2023-05-18T11:47:40.391Z,1022.59
2023-05-18T11:48:40.316Z,1022.60
2023-05-18T11:49:40.213Z,1022.59
2023-05-18T11:50:40.199Z,1022.64
2023-05-18T11:51:40.191Z,1022.61
2023-05-18T11:52:40.189Z,1022.64
2023-05-18T11:53:40.199Z,1022.59
2023-05-18T11:54:40.192Z,1022.58
2023-05-18T11:55:40.215Z,1022.57
2023-05-18T11:56:40.225Z,1022.56
2023-05-18T11:57:40.258Z,1022.57
2023-05-18T11:58:40.218Z,1022.59
2023-05-18T11:59:40.302Z,1022.62
2023-05-18T12:00:40.233Z,1022.58
2023-05-18T12:01:40.238Z,1022.60
2023-05-18T12:02:40.266Z,1022.63
2023-05-18T12:03:40.377Z,1022.64
2023-05-18T12:04:40.324Z,1022.65
2023-05-18T12:05:40.304Z,1022.63
2023-05-18T12:06:40.266Z,1022.59
2023-05-18T12:07:40.251Z,1022.64
2023-05-18T12:08:40.262Z,1022.64
2023-05-18T12:09:40.259Z,1022.63
2023-05-18T12:10:40.279Z,1022.61
2023-05-18T12:11:40.290Z,1022.56
2023-05-18T12:12:40.288Z,1022.54
2023-05-18T12:13:40.280Z,1022.52
2023-05-18T12:14:40.286Z,1022.50
2023-05-18T12:15:40.310Z,1022.51
2023-05-18T12:16:40.329Z,1022.50
2023-05-18T12:17:40.349Z,1022.49
2023-05-18T12:18:40.369Z,1022.46
2023-05-18T12:19:40.308Z,1022.51
2023-05-18T12:20:40.336Z,1022.48
2023-05-18T12:21:40.427Z,1022.54
2023-05-18T12:22:40.329Z,1022.57
2023-05-18T12:23:40.341Z,1022.50
2023-05-18T12:24:40.337Z,1022.52
2023-05-18T12:25:40.347Z,1022.45
2023-05-18T12:26:40.350Z,1022.40
2023-05-18T12:27:40.385Z,1022.38
2023-05-18T12:28:40.372Z,1022.43
2023-05-18T12:29:40.377Z,1022.43
2023-05-18T12:30:40.378Z,1022.43
2023-05-18T12:31:40.597Z,1022.38
2023-05-18T12:32:40.462Z,1022.36
2023-05-18T12:33:40.398Z,1022.33
2023-05-18T12:34:40.415Z,1022.35
2023-05-18T12:35:40.466Z,1022.34
2023-05-18T12:36:40.411Z,1022.39
2023-05-18T12:37:45.017Z,1022.36
2023-05-18T12:38:40.419Z,1022.35
2023-05-18T12:39:40.447Z,1022.34
2023-05-18T12:40:40.428Z,1022.33
2023-05-18T12:41:40.467Z,1022.29
2023-05-18T12:42:40.441Z,1022.28
2023-05-18T12:43:40.474Z,1022.29
2023-05-18T12:44:40.454Z,1022.24
2023-05-18T12:45:40.458Z,1022.22
2023-05-18T12:46:40.491Z,1022.24
2023-05-18T12:47:40.520Z,1022.24
2023-05-18T12:48:40.483Z,1022.22
2023-05-18T12:49:40.490Z,1022.19
2023-05-18T12:50:40.496Z,1022.15
2023-05-18T12:51:40.532Z,1022.16
2023-05-18T12:52:40.496Z,1022.19
2023-05-18T12:53:40.529Z,1022.17
2023-05-18T12:54:40.510Z,1022.17
2023-05-18T12:55:40.526Z,1022.14
2023-05-18T12:56:40.554Z,1022.14
2023-05-18T12:57:40.538Z,1022.14
2023-05-18T12:58:40.543Z,1022.11
2023-05-18T12:59:40.553Z,1022.16
2023-05-18T13:00:40.564Z,1022.14
2023-05-18T13:01:40.639Z,1022.15
2023-05-18T13:02:40.642Z,1022.14
2023-05-18T13:03:40.932Z,1022.12
2023-05-18T13:04:40.605Z,1022.10
2023-05-18T13:05:40.587Z,1022.06
2023-05-18T13:06:40.616Z,1022.09
2023-05-18T13:07:40.654Z,1022.06
2023-05-18T13:08:40.632Z,1022.09
2023-05-18T13:09:40.634Z,1022.05
2023-05-18T13:10:40.808Z,1022.09
2023-05-18T13:11:40.644Z,1022.08
2023-05-18T13:12:40.695Z,1022.05
2023-05-18T13:13:40.658Z,1022.10
2023-05-18T13:14:40.693Z,1022.09
2023-05-18T13:15:40.676Z,1022.01
2023-05-18T13:16:40.713Z,1021.96
2023-05-18T13:17:40.752Z,1022.06
2023-05-18T13:21:13.248Z,1021.95
2023-05-18T13:22:13.230Z,1021.95
2023-05-18T13:23:13.246Z,1021.95
2023-05-18T13:24:13.255Z,1021.94
2023-05-18T13:25:13.262Z,1021.98
2023-05-18T13:26:13.261Z,1021.97
2023-05-18T13:27:13.312Z,1021.95
2023-05-18T13:28:13.329Z,1021.94
2023-05-18T13:29:13.296Z,1021.93
2023-05-18T13:30:14.079Z,1021.99
2023-05-18T13:31:13.319Z,1022.01
2023-05-18T13:32:13.369Z,1021.95
2023-05-18T13:33:13.358Z,1021.98
2023-05-18T13:34:13.322Z,1021.94
2023-05-18T13:35:13.353Z,1021.98
2023-05-18T13:36:13.362Z,1021.98
2023-05-18T13:37:14.791Z,1021.96
2023-05-18T13:38:13.387Z,1021.93
2023-05-18T13:39:13.359Z,1021.91
2023-05-18T13:40:13.378Z,1021.85
2023-05-18T13:41:13.426Z,1021.85
2023-05-18T13:42:13.417Z,1021.90
2023-05-18T13:43:14.029Z,1021.85
2023-05-18T13:44:13.403Z,1021.84
2023-05-18T13:45:15.868Z,1021.80
2023-05-18T13:46:13.562Z,1021.76
2023-05-18T13:47:13.444Z,1021.74
2023-05-18T13:48:13.535Z,1021.76
2023-05-18T13:49:13.482Z,1021.74
2023-05-18T13:50:13.474Z,1021.77
2023-05-18T13:51:13.605Z,1021.75
2023-05-18T13:52:13.478Z,1021.73
2023-05-18T13:53:13.506Z,1021.74
2023-05-18T13:54:13.493Z,1021.75
2023-05-18T13:55:13.521Z,1021.74
2023-05-18T13:56:13.512Z,1021.72
2023-05-18T13:57:13.533Z,1021.72
2023-05-18T13:58:13.541Z,1021.74
2023-05-18T13:59:13.526Z,1021.73
2023-05-18T14:00:13.641Z,1021.65
2023-05-18T14:01:14.036Z,1021.67
2023-05-18T14:02:13.628Z,1021.68
2023-05-18T14:03:13.802Z,1021.67
2023-05-18T14:04:13.565Z,1021.65
2023-05-18T14:05:13.581Z,1021.67
2023-05-18T14:06:13.599Z,1021.70
2023-05-18T14:07:13.633Z,1021.69
2023-05-18T14:08:13.654Z,1021.67
2023-05-18T14:09:13.604Z,1021.63
2023-05-18T14:10:13.718Z,1021.64
2023-05-18T14:11:13.648Z,1021.64
2023-05-18T14:12:13.683Z,1021.60
2023-05-18T14:13:13.668Z,1021.57
2023-05-18T14:14:13.662Z,1021.57
2023-05-18T14:15:13.896Z,1021.60
2023-05-18T14:16:13.714Z,1021.59
2023-05-18T14:17:13.860Z,1021.55
2023-05-18T14:18:13.749Z,1021.56
2023-05-18T14:19:13.751Z,1021.55
2023-05-18T14:20:13.724Z,1021.52
2023-05-18T14:21:13.723Z,1021.47
2023-05-18T14:22:13.733Z,1021.49
2023-05-18T14:23:13.744Z,1021.48
2023-05-18T14:24:13.761Z,1021.46
2023-05-18T14:25:13.792Z,1021.51
2023-05-18T14:26:13.748Z,1021.54
2023-05-18T14:27:13.758Z,1021.51
2023-05-18T14:28:13.774Z,1021.48
2023-05-18T14:29:13.822Z,1021.46
2023-05-18T14:30:13.805Z,1021.50
2023-05-18T14:31:13.850Z,1021.52
2023-05-18T14:32:13.804Z,1021.45
2023-05-18T14:33:13.920Z,1021.47
2023-05-18T14:34:13.818Z,1021.44
2023-05-18T14:35:13.844Z,1021.41
2023-05-18T14:36:13.846Z,1021.44
2023-05-18T14:37:13.837Z,1021.35
2023-05-18T14:38:13.892Z,1021.33
2023-05-18T14:39:13.856Z,1021.36
2023-05-18T14:40:13.888Z,1021.38
2023-05-18T14:41:13.901Z,1021.39
2023-05-18T14:42:13.888Z,1021.33
2023-05-18T14:43:13.920Z,1021.31
2023-05-18T14:44:13.913Z,1021.33
2023-05-18T14:45:14.048Z,1021.37
2023-05-18T14:46:14.047Z,1021.34
2023-05-18T14:47:13.933Z,1021.36
2023-05-18T14:48:14.009Z,1021.33
2023-05-18T14:49:13.972Z,1021.37
2023-05-18T14:50:14.004Z,1021.34
2023-05-18T14:51:13.966Z,1021.36
2023-05-18T14:52:13.966Z,1021.36
2023-05-18T14:53:13.995Z,1021.36
2023-05-18T14:54:14.013Z,1021.31
2023-05-18T14:55:14.042Z,1021.34
2023-05-18T14:56:14.026Z,1021.32
2023-05-18T14:57:14.022Z,1021.32
2023-05-18T14:58:14.023Z,1021.28
2023-05-18T14:59:14.047Z,1021.33
2023-05-18T15:00:15.162Z,1021.33
2023-05-18T15:01:14.092Z,1021.32
2023-05-18T15:02:14.262Z,1021.37
2023-05-18T15:03:14.220Z,1021.30
2023-05-18T15:04:14.138Z,1021.29
2023-05-18T15:05:14.131Z,1021.29
2023-05-18T15:06:14.104Z,1021.27
2023-05-18T15:07:14.101Z,1021.29
2023-05-18T15:08:14.116Z,1021.26
2023-05-18T15:09:14.151Z,1021.24
2023-05-18T15:10:14.113Z,1021.23
2023-05-18T15:11:14.157Z,1021.24
2023-05-18T15:12:14.157Z,1021.25
2023-05-18T15:13:14.171Z,1021.25
2023-05-18T15:14:14.160Z,1021.25
2023-05-18T15:15:14.161Z,1021.22
2023-05-18T15:16:14.206Z,1021.22
2023-05-18T15:17:14.204Z,1021.26
2023-05-18T15:18:14.225Z,1021.30
2023-05-18T15:19:14.215Z,1021.26
2023-05-18T15:20:14.218Z,1021.26
2023-05-18T15:21:14.205Z,1021.25
2023-05-18T15:22:14.207Z,1021.25
2023-05-18T15:23:14.232Z,1021.21
2023-05-18T15:24:14.231Z,1021.13
2023-05-18T15:25:14.236Z,1021.18
2023-05-18T15:26:14.420Z,1021.14
2023-05-18T15:27:14.258Z,1021.18
2023-05-18T15:28:14.278Z,1021.16
2023-05-18T15:29:14.263Z,1021.17
2023-05-18T15:30:14.288Z,1021.21
2023-05-18T15:31:14.319Z,1021.18
2023-05-18T15:32:14.377Z,1021.20
2023-05-18T15:33:14.359Z,1021.17
2023-05-18T15:34:14.308Z,1021.16
2023-05-18T15:35:14.292Z,1021.19
2023-05-18T15:36:14.326Z,1021.20
2023-05-18T15:37:14.295Z,1021.18
2023-05-18T15:38:14.325Z,1021.18
2023-05-18T15:39:14.327Z,1021.17
2023-05-18T15:40:14.368Z,1021.20
2023-05-18T15:41:14.333Z,1021.23
2023-05-18T15:42:14.338Z,1021.21
2023-05-18T15:43:14.354Z,1021.19
2023-05-18T15:44:14.358Z,1021.16
2023-05-18T15:45:14.349Z,1021.15
2023-05-18T15:46:14.431Z,1021.19
2023-05-18T15:47:14.348Z,1021.16
2023-05-18T15:48:14.394Z,1021.16
2023-05-18T15:49:14.563Z,1021.13
2023-05-18T15:50:14.411Z,1021.11
2023-05-18T15:51:14.356Z,1021.10
2023-05-18T15:52:14.397Z,1021.09
2023-05-18T15:53:14.380Z,1021.08
2023-05-18T15:54:14.402Z,1021.10
2023-05-18T15:55:14.396Z,1021.06
2023-05-18T15:56:14.390Z,1021.08
2023-05-18T15:57:14.400Z,1021.07
2023-05-18T15:58:14.376Z,1021.08
2023-05-18T15:59:14.406Z,1021.09
2023-05-18T16:00:14.412Z,1021.08
2023-05-18T16:01:14.421Z,1021.07
2023-05-18T16:12:49.950Z,1021.01
2023-05-18T16:13:49.962Z,1020.98
2023-05-18T16:14:49.910Z,1020.98
2023-05-18T16:15:49.908Z,1021.00
2023-05-18T16:16:49.924Z,1020.98
2023-05-18T16:17:49.910Z,1020.96
2023-05-18T16:18:49.949Z,1020.94
2023-05-18T16:19:49.891Z,1020.92
2023-05-18T16:20:49.878Z,1020.91
2023-05-18T16:21:49.881Z,1020.91
2023-05-18T16:22:49.888Z,1020.96
2023-05-18T16:23:49.905Z,1020.94
2023-05-18T16:24:49.925Z,1020.97
2023-05-18T16:25:49.881Z,1020.95
2023-05-18T16:26:49.883Z,1020.97
2023-05-18T16:27:49.889Z,1020.94
2023-05-18T16:28:49.907Z,1020.96
2023-05-18T16:29:49.896Z,1020.91
2023-05-18T16:30:49.898Z,1020.94
2023-05-18T16:31:49.926Z,1020.93
2023-05-18T16:32:49.922Z,1020.97
2023-05-18T16:33:49.924Z,1020.92